Valley International Airport
KHRL : now visible

Airfield :











YOU CAN JOIN US ON...

 
LOGIN :

Register | Disclaimer

   EN    FR    IT 

 









Legend :    VFR   Marginal VFR   IFR   Intensive IFR   Very Intensive IFR
Visi :
Ceiling :
>= 8 km
>= 3000ft
5 to 8 km
1000 to 3000 ft
1500m to 5 km
500 to 1000 ft
800 to 1500m
200 to 500 ft
< 800m
< 200 ft
Symbols :   Thunderstorms  Fog  Heavy snow  Heavy precipitations  Wind > 20 kt






- Airport Elevation : 36 ft
- IATA code : HRL


KHRL - Valley International

CURRENT METAR :
  • 141552Z 33011KT 10SM OVC007 09/08 A3018 RMK AO2 SLP218 T00940083

EXPIRED METARs :
  • 141437Z 33008KT 9SM BKN005 OVC017 08/07 A3016 RMK AO2 T00830072
  • 141428Z 34008KT 9SM SCT007 OVC017 08/07 A3016 RMK AO2 T00780072
  • 141413Z 34008KT 4SM BR OVC016 08/07 A3015 RMK AO2 T00780067
  • 141405Z 34010KT 3SM BR OVC014 07/07 A3016 RMK AO2 T00720067
  • 141352Z 34009KT 7SM OVC015 07/06 A3015 RMK AO2 SLP210 T00720061

TAF KHRL
Valid from the 14 at 12:00 until the 15 at 12:00 UTC


141120Z 1412/1512 32010KT P6SM BKN015 OVC030
FM141800 33014G20KT P6SM BKN015 OVC035
FM150400 33016G22KT P6SM OVC014



MET'MAP, your aeronautical weather chart ! - Copyright ORBIFLY December 2007 - Disclaimer

ORBIFLY MET'MAP TEAM :

Programming & Development : Alexandra Zaïnal
Concept & Development : Baudouin d'Aumeries
Co-Development & Prog : Marc-Olivier Méhu
Technical & hardware support : Manuel Goepfert

Contact : metmap@orbifly.com




SOURCES & CREDITS :

   NOAA       Earth
Advisory